Time;durP1;ratioP1;P1;durP2;ratioP2;P2;SDS_P1;SDS_P2;PMS_P1;PMS_P2;Temp;Humidity;BMP_temperature;BMP_pressure;BME280_temperature;BME280_humidity;BME280_pressure;Samples;Min_cycle;Max_cycle;Signal;HPM_P1;HPM_P2
2021/07/26 00:00:42;;;;;;;21.92;12.20;;;;;;;17.77;85.57;100957.44;4947385;28;20039;-50
2021/07/26 00:03:08;;;;;;;18.95;12.27;;;;;;;17.81;85.46;100957.38;4951672;28;20467;-52
2021/07/26 00:05:33;;;;;;;17.67;12.45;;;;;;;17.82;85.56;100961.75;4951126;28;20051;-48
2021/07/26 00:07:58;;;;;;;19.23;13.10;;;;;;;17.80;85.64;100958.28;4951841;28;20066;-48
2021/07/26 00:10:24;;;;;;;19.95;12.65;;;;;;;17.82;85.37;100955.59;4948759;28;20582;-50
2021/07/26 00:12:49;;;;;;;23.38;14.00;;;;;;;17.77;85.68;100953.03;4952355;28;20426;-50
2021/07/26 00:15:14;;;;;;;27.75;15.95;;;;;;;17.78;86.04;100956.56;4948840;28;20066;-49
2021/07/26 00:17:40;;;;;;;24.42;16.25;;;;;;;17.81;86.23;100960.00;4965794;28;20124;-48
2021/07/26 00:20:06;;;;;;;27.40;17.42;;;;;;;17.81;86.08;100957.38;4954428;28;20023;-47
2021/07/26 00:22:31;;;;;;;25.90;16.90;;;;;;;17.84;86.11;100954.69;4950164;28;20027;-51
2021/07/26 00:24:56;;;;;;;23.30;15.50;;;;;;;17.85;85.97;100955.56;4948297;28;20047;-49
2021/07/26 00:27:22;;;;;;;25.65;15.77;;;;;;;17.84;86.06;100953.81;4949212;28;20023;-49
2021/07/26 00:29:47;;;;;;;23.10;14.88;;;;;;;17.82;85.99;100952.97;4947187;28;20038;-49
2021/07/26 00:32:12;;;;;;;22.33;14.52;;;;;;;17.81;85.89;100946.81;4949572;28;20034;-51
2021/07/26 00:34:38;;;;;;;22.77;14.18;;;;;;;17.66;86.47;100951.47;4946827;28;20037;-50
2021/07/26 00:37:03;;;;;;;23.15;15.82;;;;;;;17.61;86.73;100950.66;4944997;28;20050;-49
2021/07/26 00:39:34;;;;;;;23.10;14.30;;;;;;;17.64;86.60;100951.47;4948894;28;20117;-48
2021/07/26 00:41:59;;;;;;;21.05;14.88;;;;;;;17.65;86.60;100955.00;4951109;28;20114;-52
2021/07/26 00:44:26;;;;;;;24.75;15.82;;;;;;;17.62;86.05;100942.75;4945925;28;20034;-54
2021/07/26 00:46:53;;;;;;;22.40;14.32;;;;;;;17.58;85.93;100940.09;4945511;28;20033;-49
2021/07/26 00:49:20;;;;;;;23.20;14.27;;;;;;;17.51;86.55;100935.81;4949052;28;20039;-50
2021/07/26 00:51:48;;;;;;;24.20;15.63;;;;;;;17.52;86.52;100935.81;4951008;28;20034;-53
2021/07/26 00:54:15;;;;;;;26.13;16.50;;;;;;;17.51;86.43;100928.78;4949088;28;20022;-51
2021/07/26 00:56:41;;;;;;;27.65;17.27;;;;;;;17.42;86.43;100915.75;4951297;28;20058;-48
2021/07/26 00:59:09;;;;;;;24.02;16.30;;;;;;;17.40;86.14;100922.78;4947113;28;20166;-50
2021/07/26 01:01:34;;;;;;;24.00;16.48;;;;;;;17.35;86.21;100920.22;4949555;28;20034;-50
2021/07/26 01:03:59;;;;;;;26.10;16.67;;;;;;;17.31;86.22;100926.44;4946704;28;20045;-51
2021/07/26 01:06:25;;;;;;;30.95;19.10;;;;;;;17.26;86.38;100930.88;4949827;28;20042;-49
2021/07/26 01:08:50;;;;;;;31.02;17.88;;;;;;;17.18;86.78;100922.22;4949590;28;20027;-50
2021/07/26 01:11:16;;;;;;;39.17;23.35;;;;;;;17.24;87.64;100926.53;4967868;28;20061;-49
2021/07/26 01:13:41;;;;;;;38.45;22.35;;;;;;;17.30;87.63;100929.97;4945904;28;20035;-50
2021/07/26 01:16:07;;;;;;;40.38;22.98;;;;;;;17.32;87.67;100922.88;4949494;28;20627;-51
2021/07/26 01:18:33;;;;;;;36.67;22.27;;;;;;;17.24;87.93;100923.91;4949875;28;20585;-51
2021/07/26 01:21:10;;;;;;;33.20;20.27;;;;;;;17.16;87.90;100920.47;4947608;28;20485;-50
2021/07/26 01:23:37;;;;;;;28.58;19.33;;;;;;;17.08;87.67;100922.38;4949670;28;21033;-48
2021/07/26 01:26:05;;;;;;;29.73;19.23;;;;;;;17.02;87.18;100926.78;4946311;28;20125;-49
2021/07/26 01:28:33;;;;;;;33.08;19.40;;;;;;;16.95;87.32;100927.78;4950619;28;20426;-48
2021/07/26 01:30:59;;;;;;;32.88;20.42;;;;;;;17.03;87.33;100920.63;4948974;28;20034;-51
2021/07/26 01:33:25;;;;;;;36.47;21.85;;;;;;;17.02;87.11;100925.91;4952636;28;20034;-49
2021/07/26 01:35:52;;;;;;;41.00;24.63;;;;;;;17.03;87.63;100925.03;4950191;28;20038;-51
2021/07/26 01:38:17;;;;;;;35.22;21.38;;;;;;;17.12;87.59;100930.19;4961438;28;20031;-47
2021/07/26 01:40:45;;;;;;;37.58;22.38;;;;;;;17.15;87.53;100926.63;4953089;28;20042;-49
2021/07/26 01:43:10;;;;;;;36.72;22.55;;;;;;;17.21;87.41;100931.81;4948868;28;20423;-47
2021/07/26 01:45:38;;;;;;;37.05;22.48;;;;;;;17.28;86.96;100933.50;4951375;28;20438;-52
2021/07/26 01:48:21;;;;;;;36.97;23.25;;;;;;;17.25;86.72;100934.44;4948583;28;20117;-48
2021/07/26 01:50:51;;;;;;;44.90;25.13;;;;;;;17.26;87.40;100935.31;4966840;28;20411;-49
2021/07/26 01:53:17;;;;;;;46.00;25.67;;;;;;;17.24;87.71;100937.94;4965725;28;20034;-49
2021/07/26 01:55:43;;;;;;;40.33;23.13;;;;;;;17.24;88.15;100939.72;4954167;28;20030;-48
2021/07/26 01:58:09;;;;;;;47.47;27.45;;;;;;;17.32;88.20;100936.06;4947896;28;20026;-50
2021/07/26 02:00:34;;;;;;;47.25;27.42;;;;;;;17.31;88.39;100933.47;4952027;28;20045;-51
2021/07/26 02:03:00;;;;;;;48.90;27.30;;;;;;;17.45;88.14;100936.78;4958668;28;20121;-51
2021/07/26 02:05:26;;;;;;;41.38;25.85;;;;;;;17.44;88.02;100933.25;4952366;28;20127;-52
2021/07/26 02:07:51;;;;;;;48.00;27.65;;;;;;;17.45;87.79;100934.13;4948513;28;20096;-49
2021/07/26 02:10:17;;;;;;;44.25;26.17;;;;;;;17.44;87.38;100933.25;4951347;28;20134;-49
2021/07/26 02:12:42;;;;;;;44.53;26.73;;;;;;;17.47;87.75;100929.72;4955481;28;20394;-51
2021/07/26 02:15:08;;;;;;;42.58;25.23;;;;;;;17.46;87.62;100930.63;4950982;28;20553;-47
2021/07/26 02:17:33;;;;;;;37.60;22.77;;;;;;;17.52;87.31;100930.53;4952027;28;20070;-48
2021/07/26 02:19:59;;;;;;;43.72;26.27;;;;;;;17.61;86.83;100924.31;4954101;28;20039;-49
2021/07/26 02:22:24;;;;;;;39.15;24.70;;;;;;;17.58;86.42;100935.72;4955177;28;20034;-50
2021/07/26 02:24:49;;;;;;;39.60;25.48;;;;;;;17.60;86.49;100933.06;4953469;28;20043;-48
2021/07/26 02:27:15;;;;;;;42.33;25.73;;;;;;;17.62;86.51;100919.00;4953036;28;20041;-48
2021/07/26 02:29:40;;;;;;;43.80;26.67;;;;;;;17.65;86.65;100920.72;4954443;28;20427;-50
2021/07/26 02:32:06;;;;;;;40.05;24.88;;;;;;;17.65;86.48;100926.00;4954626;28;20054;-49
2021/07/26 02:34:32;;;;;;;41.25;24.35;;;;;;;17.54;86.68;100922.59;4952907;28;20550;-52
2021/07/26 02:36:57;;;;;;;45.00;26.60;;;;;;;17.63;86.58;100922.50;4952773;28;20034;-53
2021/07/26 02:39:22;;;;;;;41.25;25.17;;;;;;;17.63;86.43;100926.00;4951324;28;20081;-49
2021/07/26 02:41:48;;;;;;;41.42;25.73;;;;;;;17.61;86.73;100927.81;4953591;28;20518;-52
2021/07/26 02:44:13;;;;;;;44.15;27.02;;;;;;;17.57;86.86;100930.44;4945744;28;20745;-47
2021/07/26 02:46:38;;;;;;;43.05;25.83;;;;;;;17.63;86.58;100926.00;4952870;28;20041;-51
2021/07/26 02:49:04;;;;;;;37.90;23.83;;;;;;;17.71;86.22;100926.78;4950747;28;20998;-50
2021/07/26 02:51:29;;;;;;;40.97;25.38;;;;;;;17.72;85.90;100936.44;4953488;28;20609;-49
2021/07/26 02:53:56;;;;;;;44.80;26.70;;;;;;;17.74;86.20;100932.00;4952999;28;20039;-52
2021/07/26 02:56:21;;;;;;;45.42;25.92;;;;;;;17.77;86.23;100931.94;4950624;28;20561;-52
2021/07/26 02:58:46;;;;;;;44.38;26.83;;;;;;;17.76;86.14;100938.13;4968220;28;20034;-48
2021/07/26 03:01:12;;;;;;;42.45;25.63;;;;;;;17.75;86.39;100933.72;4947977;28;20043;-52
2021/07/26 03:03:38;;;;;;;41.63;24.85;;;;;;;17.74;86.26;100932.00;4952173;28;20053;-47
2021/07/26 03:06:04;;;;;;;41.45;24.92;;;;;;;17.49;87.36;100942.91;4950112;28;20535;-48
2021/07/26 03:08:30;;;;;;;49.17;27.05;;;;;;;17.37;88.10;100936.91;4949883;28;20034;-48
2021/07/26 03:11:00;;;;;;;46.25;27.00;;;;;;;17.36;88.34;100936.91;4955042;28;20035;-50
2021/07/26 03:13:25;;;;;;;44.47;27.27;;;;;;;17.39;88.00;100945.63;4950807;28;20030;-47
2021/07/26 03:15:50;;;;;;;45.58;27.42;;;;;;;17.38;88.06;100946.53;4952535;28;20039;-49
2021/07/26 03:18:16;;;;;;;45.10;26.90;;;;;;;17.40;88.00;100947.38;4949431;28;20436;-48
2021/07/26 03:20:41;;;;;;;46.45;27.15;;;;;;;17.36;87.83;100944.81;4953150;28;20022;-48
2021/07/26 03:23:10;;;;;;;45.92;27.48;;;;;;;17.37;88.43;100939.53;4950096;28;20034;-50
2021/07/26 03:25:41;;;;;;;46.83;28.00;;;;;;;17.44;88.20;100948.25;4951934;28;20042;-52
2021/07/26 03:28:06;;;;;;;49.17;28.00;;;;;;;17.50;87.75;100948.16;4952666;28;20030;-49
2021/07/26 03:30:32;;;;;;;46.25;27.85;;;;;;;17.51;87.61;100944.59;4949746;28;20057;-48
2021/07/26 03:32:57;;;;;;;49.42;28.05;;;;;;;17.53;87.35;100948.09;4948653;28;20042;-50
2021/07/26 03:35:24;;;;;;;51.28;28.70;;;;;;;17.53;87.40;100940.19;4952875;28;20031;-52
2021/07/26 03:37:50;;;;;;;49.33;28.73;;;;;;;17.53;87.37;100949.84;4952800;28;20035;-52
2021/07/26 03:40:16;;;;;;;47.38;27.73;;;;;;;17.70;86.71;100948.75;4967038;28;20510;-48
2021/07/26 03:42:42;;;;;;;46.90;28.15;;;;;;;17.72;86.89;100946.09;4951591;28;20533;-52
2021/07/26 03:45:09;;;;;;;47.55;28.73;;;;;;;17.74;86.62;100952.25;4954032;28;20034;-50
2021/07/26 03:47:34;;;;;;;49.00;27.75;;;;;;;17.74;86.45;100947.84;4949928;28;20035;-52
2021/07/26 03:50:00;;;;;;;43.95;26.90;;;;;;;17.75;86.45;100943.41;4949781;28;20507;-51
2021/07/26 03:52:25;;;;;;;48.80;27.00;;;;;;;17.76;86.20;100942.50;4950630;28;20058;-51
2021/07/26 03:54:54;;;;;;;45.83;27.33;;;;;;;17.73;86.34;100946.09;4953418;28;20055;-48
2021/07/26 03:57:20;;;;;;;44.72;26.88;;;;;;;17.73;86.20;100948.72;4947521;28;20475;-49
2021/07/26 03:59:45;;;;;;;44.58;26.63;;;;;;;17.73;86.21;100959.28;4952770;28;20779;-50
2021/07/26 04:02:11;;;;;;;46.47;26.27;;;;;;;17.75;85.96;100949.56;4952503;28;20054;-50
2021/07/26 04:04:36;;;;;;;41.17;26.10;;;;;;;17.75;86.27;100946.91;4964692;28;20260;-50
2021/07/26 04:07:06;;;;;;;37.22;24.02;;;;;;;17.78;85.95;100951.28;4952772;28;20478;-47
2021/07/26 04:09:37;;;;;;;36.42;22.92;;;;;;;17.79;86.00;100947.75;4948120;28;20074;-50
2021/07/26 04:12:06;;;;;;;43.20;25.83;;;;;;;17.79;85.95;100955.66;4951470;28;20027;-53
2021/07/26 04:14:36;;;;;;;45.63;26.42;;;;;;;17.80;86.16;100955.66;4944284;28;20022;-50
2021/07/26 04:17:01;;;;;;;41.67;25.40;;;;;;;17.80;86.01;100950.38;4950252;28;20030;-48
2021/07/26 04:19:27;;;;;;;44.72;25.40;;;;;;;17.81;85.86;100959.13;4951517;28;20506;-48
2021/07/26 04:21:56;;;;;;;42.78;25.88;;;;;;;17.80;85.88;100954.78;4950306;28;20062;-52
2021/07/26 04:24:22;;;;;;;44.15;27.05;;;;;;;17.80;86.22;100957.41;4951844;28;20050;-49
2021/07/26 04:26:47;;;;;;;42.80;26.05;;;;;;;17.81;86.39;100956.50;4947032;28;20390;-48
2021/07/26 04:29:13;;;;;;;41.30;25.83;;;;;;;17.81;86.22;100957.38;4951025;28;20256;-48
2021/07/26 04:31:38;;;;;;;41.47;25.88;;;;;;;17.86;86.00;100956.44;4949147;28;20062;-48
2021/07/26 04:34:03;;;;;;;43.13;24.38;;;;;;;17.94;86.04;100957.19;4951299;28;20029;-48
2021/07/26 04:36:29;;;;;;;40.67;25.02;;;;;;;17.92;85.85;100959.00;4948189;28;20529;-51
2021/07/26 04:38:54;;;;;;;39.47;26.02;;;;;;;17.91;85.69;100952.84;4951887;28;20031;-49
2021/07/26 04:41:19;;;;;;;37.47;25.48;;;;;;;17.91;85.89;100951.97;4953207;28;20062;-50
2021/07/26 04:43:45;;;;;;;39.35;24.70;;;;;;;17.96;85.51;100953.63;4949560;28;20039;-48
2021/07/26 04:46:11;;;;;;;38.92;24.77;;;;;;;17.90;85.26;100956.38;4949213;28;20077;-52
2021/07/26 04:48:36;;;;;;;42.95;26.70;;;;;;;17.88;85.37;100968.69;4949117;28;20089;-52
2021/07/26 04:51:02;;;;;;;41.95;27.20;;;;;;;17.88;85.67;100963.44;4949678;28;20485;-49
2021/07/26 04:53:28;;;;;;;44.00;27.95;;;;;;;17.90;85.41;100964.28;4950916;28;20038;-53
2021/07/26 04:55:53;;;;;;;45.28;29.52;;;;;;;17.90;85.59;100958.13;4950959;28;20117;-51
2021/07/26 04:58:19;;;;;;;42.47;27.65;;;;;;;17.91;85.29;100962.53;4952981;28;20034;-47
2021/07/26 05:00:44;;;;;;;42.30;26.85;;;;;;;17.92;85.24;100969.53;4950539;28;20061;-49
2021/07/26 05:03:10;;;;;;;47.53;27.73;;;;;;;17.96;85.48;100958.91;4948573;28;20081;-48
2021/07/26 05:05:36;;;;;;;41.05;26.75;;;;;;;17.99;85.13;100961.50;4949237;28;20035;-50
2021/07/26 05:08:01;;;;;;;38.05;25.92;;;;;;;18.15;84.77;100960.38;4950591;28;20035;-48
2021/07/26 05:10:27;;;;;;;40.38;27.65;;;;;;;18.18;84.44;100959.44;4947551;28;20356;-46
2021/07/26 05:12:52;;;;;;;38.10;26.02;;;;;;;18.15;84.51;100960.38;4953300;28;20573;-51
2021/07/26 05:15:17;;;;;;;39.75;25.50;;;;;;;18.19;84.89;100958.53;4952881;28;21043;-49
2021/07/26 05:17:43;;;;;;;39.25;27.02;;;;;;;18.28;84.61;100960.16;4948557;28;20122;-47
2021/07/26 05:20:08;;;;;;;39.38;25.48;;;;;;;18.29;84.75;100956.63;4951849;28;20042;-48
2021/07/26 05:22:34;;;;;;;36.72;24.20;;;;;;;18.24;84.38;100954.94;4950340;28;20034;-47
2021/07/26 05:24:59;;;;;;;37.17;25.42;;;;;;;18.33;84.32;100961.84;4949800;28;20047;-49
2021/07/26 05:27:28;;;;;;;38.75;24.42;;;;;;;18.36;84.74;100966.19;4947736;28;20106;-52
2021/07/26 05:29:53;;;;;;;35.03;24.30;;;;;;;18.41;84.54;100954.66;4954235;28;20117;-52
2021/07/26 05:32:18;;;;;;;38.83;24.73;;;;;;;18.46;84.87;100962.50;4954413;28;20430;-51
2021/07/26 05:34:46;;;;;;;42.20;26.05;;;;;;;18.49;84.89;100963.28;4952865;28;20026;-49
2021/07/26 05:37:11;;;;;;;45.35;25.77;;;;;;;18.51;84.87;100972.06;4955190;28;20027;-51
2021/07/26 05:39:37;;;;;;;42.67;26.33;;;;;;;18.51;84.71;100968.56;4954464;28;20038;-50
2021/07/26 05:42:02;;;;;;;47.47;27.67;;;;;;;18.53;85.31;100956.22;4954103;28;20031;-47
2021/07/26 05:44:28;;;;;;;48.13;28.75;;;;;;;18.60;85.41;100961.38;4953060;28;20399;-49
2021/07/26 05:46:54;;;;;;;55.60;28.67;;;;;;;18.66;85.42;100952.50;4953655;28;20566;-48
2021/07/26 05:49:19;;;;;;;54.65;30.20;;;;;;;18.86;85.59;100941.53;4953007;28;20035;-48
2021/07/26 05:51:45;;;;;;;51.05;28.90;;;;;;;19.02;85.51;100945.63;4949886;28;20222;-52
2021/07/26 05:54:10;;;;;;;43.17;26.48;;;;;;;19.25;85.12;100950.44;4956164;28;20499;-49
2021/07/26 05:56:43;;;;;;;39.13;25.65;;;;;;;19.48;84.33;100942.91;4951107;28;20081;-49
2021/07/26 05:59:09;;;;;;;37.63;23.08;;;;;;;19.63;83.07;100947.00;4970673;28;20137;-48
2021/07/26 06:01:47;;;;;;;35.25;23.33;;;;;;;19.76;83.34;100945.81;4952609;28;20027;-51
2021/07/26 06:04:14;;;;;;;34.70;23.05;;;;;;;19.88;82.30;100948.16;4954774;28;20019;-49
2021/07/26 06:06:50;;;;;;;29.20;20.90;;;;;;;20.04;81.28;100943.38;4950578;28;20027;-49
2021/07/26 06:09:16;;;;;;;29.92;20.70;;;;;;;20.23;80.12;100950.81;4953442;28;20031;-49
2021/07/26 06:11:42;;;;;;;33.88;23.45;;;;;;;20.48;80.53;100956.41;4956516;28;20434;-50
2021/07/26 06:14:08;;;;;;;28.27;19.70;;;;;;;20.53;79.15;100957.16;4953099;28;20339;-53
2021/07/26 06:16:33;;;;;;;32.25;20.92;;;;;;;20.55;79.43;100952.66;4953283;28;20039;-48
2021/07/26 06:19:01;;;;;;;24.98;19.33;;;;;;;20.48;79.71;100961.69;4953586;28;20037;-48
2021/07/26 06:21:26;;;;;;;28.92;20.73;;;;;;;20.67;78.99;100961.22;4952754;28;20042;-49
2021/07/26 06:23:52;;;;;;;28.90;21.08;;;;;;;20.48;80.39;100969.63;4951107;28;20423;-49
2021/07/26 06:26:17;;;;;;;28.20;19.85;;;;;;;20.51;79.18;100961.59;4953953;28;20401;-53
2021/07/26 06:28:42;;;;;;;31.88;19.20;;;;;;;20.62;78.71;100963.97;4954251;28;20130;-49
2021/07/26 06:31:10;;;;;;;26.40;18.80;;;;;;;20.74;78.00;100962.78;4951519;28;20168;-51
2021/07/26 06:33:35;;;;;;;26.60;19.20;;;;;;;20.69;78.82;100962.88;4956030;28;20479;-50
2021/07/26 06:36:04;;;;;;;26.80;19.35;;;;;;;20.78;78.36;100962.66;4947511;28;20026;-49
2021/07/26 06:38:29;;;;;;;27.95;20.77;;;;;;;20.83;79.48;100973.13;4954363;28;20530;-51
2021/07/26 06:40:55;;;;;;;30.50;20.08;;;;;;;20.91;79.58;100977.31;4950766;28;20098;-48
2021/07/26 06:43:20;;;;;;;28.05;18.77;;;;;;;20.86;77.41;100978.34;4955094;28;20034;-49
2021/07/26 06:45:46;;;;;;;26.77;20.38;;;;;;;20.73;79.64;100984.88;4948885;28;20034;-50
2021/07/26 06:48:11;;;;;;;29.48;20.55;;;;;;;20.63;79.35;100984.25;4948579;28;20368;-50
2021/07/26 06:50:38;;;;;;;28.27;20.17;;;;;;;20.49;79.07;100989.88;4952299;28;20499;-49
2021/07/26 06:53:04;;;;;;;31.05;21.95;;;;;;;20.30;80.92;100988.59;4948342;28;20026;-48
2021/07/26 06:55:29;;;;;;;31.92;21.48;;;;;;;20.15;80.60;100981.03;4950707;28;20045;-49
2021/07/26 06:57:55;;;;;;;36.60;22.60;;;;;;;20.10;81.08;100997.03;4949585;28;20065;-50
2021/07/26 07:00:20;;;;;;;36.75;24.08;;;;;;;20.04;82.34;100996.28;4952348;28;20379;-51
2021/07/26 07:02:47;;;;;;;34.35;24.08;;;;;;;20.05;82.32;100998.91;4954325;28;20399;-51
2021/07/26 07:05:12;;;;;;;30.98;22.30;;;;;;;20.11;80.82;100993.47;4947048;28;20028;-50
2021/07/26 07:07:38;;;;;;;39.33;24.63;;;;;;;19.98;81.83;100997.31;4948096;28;20039;-53
2021/07/26 07:10:03;;;;;;;32.80;22.90;;;;;;;19.97;81.83;100998.22;4947615;28;20483;-51
2021/07/26 07:12:29;;;;;;;32.90;22.42;;;;;;;20.01;81.64;100994.56;4951335;28;20026;-50
2021/07/26 07:14:54;;;;;;;28.00;20.38;;;;;;;20.09;80.95;101003.22;4945752;28;20027;-50
2021/07/26 07:17:19;;;;;;;30.67;22.10;;;;;;;20.09;81.02;101005.88;4948035;28;20046;-48
2021/07/26 07:19:46;;;;;;;31.95;22.10;;;;;;;20.11;81.90;101003.19;4945515;28;20027;-48
2021/07/26 07:22:11;;;;;;;38.22;22.65;;;;;;;20.13;82.39;101002.22;4950604;28;20046;-48
2021/07/26 07:24:36;;;;;;;31.55;20.48;;;;;;;20.17;79.97;101003.91;4954148;28;20492;-52
2021/07/26 07:27:02;;;;;;;26.42;18.90;;;;;;;20.21;79.92;101000.28;4928752;28;20383;-49
2021/07/26 07:29:28;;;;;;;27.52;19.95;;;;;;;20.29;80.27;101000.09;4946380;28;20045;-49
2021/07/26 07:31:53;;;;;;;29.38;20.50;;;;;;;20.25;80.44;100998.41;4945588;28;20040;-48
2021/07/26 07:34:18;;;;;;;30.20;20.92;;;;;;;20.15;80.88;100996.91;4950070;28;20467;-49
2021/07/26 07:36:44;;;;;;;27.52;21.10;;;;;;;20.31;80.42;100992.97;4947633;28;20163;-47
2021/07/26 07:39:10;;;;;;;28.83;21.75;;;;;;;20.54;79.83;100995.97;4949225;28;20030;-49
2021/07/26 07:41:36;;;;;;;25.70;19.92;;;;;;;20.75;79.05;100993.66;4950909;28;20191;-53
2021/07/26 07:44:02;;;;;;;26.70;18.83;;;;;;;20.88;78.08;101003.00;4949472;28;20023;-53
2021/07/26 07:46:27;;;;;;;27.45;20.17;;;;;;;20.97;78.65;100998.34;4950378;28;20359;-51
2021/07/26 07:48:53;;;;;;;23.35;18.67;;;;;;;21.07;77.60;100998.94;4948640;28;20121;-50
2021/07/26 07:51:18;;;;;;;19.70;16.40;;;;;;;21.37;76.56;100992.81;4950821;28;20022;-49
2021/07/26 07:53:48;;;;;;;23.95;18.45;;;;;;;21.49;76.48;100991.59;4950424;28;20121;-51
2021/07/26 07:56:14;;;;;;;25.63;18.88;;;;;;;21.73;77.09;100995.28;4949243;28;20030;-48
2021/07/26 07:58:39;;;;;;;20.60;16.00;;;;;;;21.97;75.28;101001.63;4950986;28;20501;-51
2021/07/26 08:01:05;;;;;;;20.17;16.35;;;;;;;22.21;75.77;101004.38;4949715;28;20471;-50
2021/07/26 08:03:30;;;;;;;19.10;15.43;;;;;;;22.34;75.05;101001.31;4947104;28;20146;-51
2021/07/26 08:05:59;;;;;;;18.08;14.85;;;;;;;22.37;73.51;101003.91;4947510;28;20038;-51
2021/07/26 08:08:24;;;;;;;19.27;15.45;;;;;;;22.30;74.08;101011.19;4949942;28;20395;-48
2021/07/26 08:10:50;;;;;;;17.60;14.85;;;;;;;22.37;72.59;101014.53;4950335;28;20031;-52
2021/07/26 08:13:22;;;;;;;19.10;14.68;;;;;;;22.30;73.66;101024.47;4949359;28;20264;-51
2021/07/26 08:15:49;;;;;;;18.67;15.43;;;;;;;22.32;74.44;101021.78;4958487;28;20035;-53
2021/07/26 08:18:14;;;;;;;20.55;16.48;;;;;;;22.19;75.62;101021.31;4950221;28;20044;-52
2021/07/26 08:20:40;;;;;;;18.33;15.63;;;;;;;22.01;74.44;101021.88;4952872;28;20019;-53
2021/07/26 08:23:05;;;;;;;20.05;15.70;;;;;;;21.84;74.76;101014.38;4941236;28;20126;-47
2021/07/26 08:25:30;;;;;;;18.30;15.30;;;;;;;21.88;75.42;101021.34;4948994;28;20102;-47
2021/07/26 08:27:57;;;;;;;18.40;14.52;;;;;;;22.01;74.52;101024.53;4946629;28;20118;-49
2021/07/26 08:30:26;;;;;;;20.85;15.50;;;;;;;22.01;74.46;101013.91;4948401;28;20091;-50
2021/07/26 08:32:51;;;;;;;20.67;15.27;;;;;;;21.99;74.06;101021.06;4950995;28;20108;-51
2021/07/26 08:35:20;;;;;;;20.63;15.80;;;;;;;21.98;73.72;101014.00;4950595;28;20117;-49
2021/07/26 08:37:45;;;;;;;19.38;14.88;;;;;;;21.84;73.28;101014.38;4950048;28;20050;-51
2021/07/26 08:40:11;;;;;;;22.33;16.92;;;;;;;22.08;75.24;101012.81;4945345;28;20043;-49
2021/07/26 08:42:37;;;;;;;24.63;19.20;;;;;;;22.25;76.07;101000.72;4951028;28;20689;-48
2021/07/26 08:45:03;;;;;;;23.58;18.73;;;;;;;22.73;73.26;101007.13;4947202;28;20030;-51
2021/07/26 08:47:29;;;;;;;20.60;16.45;;;;;;;23.41;69.96;101015.28;4947410;28;20058;-48
2021/07/26 08:49:59;;;;;;;21.02;17.50;;;;;;;23.75;69.02;101005.13;4948694;28;20034;-49
2021/07/26 08:52:26;;;;;;;16.08;14.15;;;;;;;24.12;65.42;101001.00;4949460;28;20081;-49
2021/07/26 08:54:55;;;;;;;18.27;15.60;;;;;;;24.37;66.37;100999.09;4951168;28;20113;-48
2021/07/26 08:57:21;;;;;;;18.33;15.55;;;;;;;24.25;65.53;100996.94;4945515;28;20404;-48
2021/07/26 08:59:46;;;;;;;21.88;17.05;;;;;;;23.79;66.55;100995.19;4949158;28;20136;-49
2021/07/26 09:02:12;;;;;;;20.80;17.27;;;;;;;23.21;69.89;101009.84;4948207;28;20435;-51
2021/07/26 09:04:38;;;;;;;22.75;18.48;;;;;;;22.92;71.88;101009.09;4946790;28;20058;-50
2021/07/26 09:07:07;;;;;;;21.98;18.02;;;;;;;23.16;70.95;101006.47;4948082;28;20018;-51
2021/07/26 09:09:46;;;;;;;20.48;17.48;;;;;;;23.07;67.71;101010.31;4950183;28;20042;-51
2021/07/26 09:12:29;;;;;;;21.15;18.70;;;;;;;23.01;67.13;101003.44;4965601;28;20023;-51
2021/07/26 09:14:55;;;;;;;22.70;17.83;;;;;;;23.05;68.63;101006.88;4948114;28;20327;-49
2021/07/26 09:17:20;;;;;;;22.67;18.95;;;;;;;22.91;68.32;101002.03;4948791;28;20035;-51
2021/07/26 09:19:59;;;;;;;25.70;20.85;;;;;;;22.63;72.72;101010.06;4943683;28;20023;-51
2021/07/26 09:22:32;;;;;;;21.75;18.60;;;;;;;22.42;71.26;101001.94;4947018;28;20027;-53
2021/07/26 09:25:40;;;;;;;26.63;19.17;;;;;;;22.03;73.70;101012.94;4946722;28;20046;-49
2021/07/26 09:28:16;;;;;;;22.92;19.38;;;;;;;22.02;75.19;101007.66;4945987;28;20559;-50
2021/07/26 09:30:44;;;;;;;19.60;16.55;;;;;;;22.07;75.06;101011.94;4948924;28;20027;-52
2021/07/26 09:33:29;;;;;;;13.95;11.90;;;;;;;22.83;72.60;101005.88;4948569;28;20119;-53
2021/07/26 09:36:09;;;;;;;14.90;12.10;;;;;;;23.42;70.60;101012.56;4948809;28;20031;-52
2021/07/26 09:38:35;;;;;;;15.75;11.73;;;;;;;23.79;67.78;101009.38;4947117;28;20030;-49
2021/07/26 09:41:01;;;;;;;13.80;11.23;;;;;;;24.26;65.87;101006.69;4947524;28;20027;-52
2021/07/26 09:43:27;;;;;;;13.98;11.85;;;;;;;24.57;68.74;101006.25;4940044;28;20051;-49
2021/07/26 09:45:56;;;;;;;12.18;10.40;;;;;;;24.54;64.50;101006.38;4943922;28;20122;-48
2021/07/26 09:48:30;;;;;;;12.57;10.85;;;;;;;24.43;63.26;101005.97;4948456;28;20591;-50
2021/07/26 09:50:56;;;;;;;;;;;;;;;24.55;65.12;101010.78;4950776;28;20055;-56
2021/07/26 09:53:26;;;;;;;18.08;13.88;;;;;;;24.27;68.43;101004.88;4945310;28;19925;-52
2021/07/26 09:55:53;;;;;;;15.75;13.23;;;;;;;24.19;65.08;101006.06;4947510;28;20718;-51
2021/07/26 09:58:39;;;;;;;17.25;12.70;;;;;;;24.55;66.19;101018.78;4948919;28;20610;-49
2021/07/26 10:01:07;;;;;;;13.23;11.55;;;;;;;24.61;66.06;101013.19;4949781;28;20102;-51
2021/07/26 10:03:32;;;;;;;12.98;10.23;;;;;;;24.67;63.33;101013.81;4947162;28;20026;-49
2021/07/26 10:06:01;;;;;;;12.23;10.07;;;;;;;24.41;65.13;101013.16;4945960;28;20035;-52
2021/07/26 10:08:28;;;;;;;11.15;10.00;;;;;;;24.03;64.84;101020.03;4948482;28;20050;-52
2021/07/26 10:10:53;;;;;;;10.80;9.70;;;;;;;23.51;65.76;101016.72;4948603;28;20030;-52
2021/07/26 10:13:19;;;;;;;13.07;10.60;;;;;;;23.21;68.38;101021.34;4946768;28;20027;-53
2021/07/26 10:15:45;;;;;;;16.23;11.52;;;;;;;23.01;67.01;101016.72;4951522;28;20027;-48
2021/07/26 10:18:11;;;;;;;15.45;11.88;;;;;;;22.88;68.12;101019.88;4951518;28;20058;-50
2021/07/26 10:20:39;;;;;;;13.95;11.43;;;;;;;22.75;70.23;101015.94;4951475;28;20350;-49
2021/07/26 10:23:19;;;;;;;14.52;10.63;;;;;;;22.70;70.07;101012.50;4952589;28;20046;-52
2021/07/26 10:25:52;;;;;;;13.32;10.38;;;;;;;22.66;69.69;101014.41;4947698;28;20039;-50
2021/07/26 10:28:55;;;;;;;13.30;10.57;;;;;;;22.48;67.67;101010.59;4952008;28;20031;-48
2021/07/26 10:31:30;;;;;;;12.80;10.80;;;;;;;22.66;67.76;101011.75;4951628;28;20450;-49
2021/07/26 10:34:11;;;;;;;12.77;10.80;;;;;;;23.07;66.88;101012.97;4952399;28;20027;-50
2021/07/26 10:36:43;;;;;;;14.05;11.32;;;;;;;23.32;70.17;101011.16;4947582;28;20027;-50
2021/07/26 10:39:12;;;;;;;14.07;11.48;;;;;;;23.79;65.15;101005.84;4950171;28;20399;-50
2021/07/26 10:41:43;;;;;;;13.68;10.10;;;;;;;24.63;65.13;101008.69;4952631;28;20412;-51
2021/07/26 10:44:09;;;;;;;13.40;10.65;;;;;;;25.25;62.54;101003.25;4950229;28;20034;-50
2021/07/26 10:46:53;;;;;;;14.48;11.70;;;;;;;25.72;59.17;101003.78;4950053;28;20174;-48
2021/07/26 10:49:39;;;;;;;12.95;10.15;;;;;;;25.79;60.80;101017.72;4947831;28;20062;-49
2021/07/26 10:52:04;;;;;;;13.98;10.30;;;;;;;25.35;61.20;101009.94;4948750;28;20104;-49
2021/07/26 10:54:34;;;;;;;14.02;9.70;;;;;;;25.07;60.10;101013.91;4950587;28;20035;-51
2021/07/26 10:56:59;;;;;;;11.00;9.05;;;;;;;25.07;59.51;101008.56;4950714;28;20322;-49
2021/07/26 10:59:24;;;;;;;14.38;10.05;;;;;;;25.04;61.18;101010.44;4952311;28;20406;-52
2021/07/26 11:02:03;;;;;;;10.82;8.23;;;;;;;25.07;61.03;101012.09;4950212;28;20073;-51
2021/07/26 11:04:32;;;;;;;12.40;8.45;;;;;;;25.42;62.95;101013.19;4964758;28;20511;-49
2021/07/26 11:07:02;;;;;;;17.80;10.35;;;;;;;25.43;60.85;101007.75;4948995;28;20472;-50
2021/07/26 11:09:32;;;;;;;16.63;11.27;;;;;;;25.46;62.19;101009.44;4950513;28;20096;-50